Time;durP1;ratioP1;P1;durP2;ratioP2;P2;SDS_P1;SDS_P2;PMS_P1;PMS_P2;Temp;Humidity;BMP_temperature;BMP_pressure;BME280_temperature;BME280_humidity;BME280_pressure;Samples;Min_cycle;Max_cycle;Signal;HPM_P1;HPM_P2
2022/03/24 00:00:39;;;;;;;60.50;28.40;;;;;;;;;;5080303;28;20020;-68
2022/03/24 00:03:05;;;;;;;60.53;28.80;;;;;;;;;;5076710;28;20157;-68
2022/03/24 00:05:30;;;;;;;62.67;29.57;;;;;;;;;;5079742;28;20111;-68
2022/03/24 00:07:55;;;;;;;56.07;29.07;;;;;;;;;;5080269;28;20578;-68
2022/03/24 00:10:21;;;;;;;58.03;29.30;;;;;;;;;;5079557;28;20110;-68
2022/03/24 00:12:46;;;;;;;61.70;29.17;;;;;;;;;;5080703;28;20046;-68
2022/03/24 00:15:16;;;;;;;64.47;30.23;;;;;;;;;;5080275;28;20044;-68
2022/03/24 00:17:41;;;;;;;54.33;28.97;;;;;;;;;;5079947;28;20035;-68
2022/03/24 00:20:07;;;;;;;58.40;30.33;;;;;;;;;;5080303;28;20062;-68
2022/03/24 00:22:32;;;;;;;60.73;31.03;;;;;;;;;;5080245;28;20020;-68
2022/03/24 00:24:57;;;;;;;62.90;29.63;;;;;;;;;;5081348;28;20024;-69
2022/03/24 00:27:23;;;;;;;56.30;29.03;;;;;;;;;;5080513;28;20028;-69
2022/03/24 00:29:48;;;;;;;60.93;30.97;;;;;;;;;;5079816;28;20508;-68
2022/03/24 00:32:13;;;;;;;69.37;32.30;;;;;;;;;;5085084;28;20043;-68
2022/03/24 00:34:39;;;;;;;60.73;31.87;;;;;;;;;;5089308;28;20142;-68
2022/03/24 00:37:05;;;;;;;61.50;30.70;;;;;;;;;;5086371;28;20070;-68
2022/03/24 00:39:33;;;;;;;62.80;29.47;;;;;;;;;;5086240;28;20032;-68
2022/03/24 00:42:02;;;;;;;64.40;30.80;;;;;;;;;;5083383;28;20039;-68
2022/03/24 00:44:28;;;;;;;62.60;30.50;;;;;;;;;;5084925;28;20511;-68
2022/03/24 00:46:54;;;;;;;63.13;30.10;;;;;;;;;;5086476;28;20031;-68
2022/03/24 00:49:20;;;;;;;66.63;31.80;;;;;;;;;;5086644;28;20028;-68
2022/03/24 00:51:46;;;;;;;66.13;31.10;;;;;;;;;;5084806;28;20063;-68
2022/03/24 00:54:11;;;;;;;62.90;29.47;;;;;;;;;;5087002;28;20032;-68
2022/03/24 00:56:37;;;;;;;62.47;30.07;;;;;;;;;;5086645;28;20103;-68
2022/03/24 00:59:02;;;;;;;66.07;30.53;;;;;;;;;;5086312;28;20030;-68
2022/03/24 01:01:28;;;;;;;60.23;30.13;;;;;;;;;;5086495;28;20035;-68
2022/03/24 01:03:53;;;;;;;60.97;30.70;;;;;;;;;;5085563;28;20035;-68
2022/03/24 01:06:19;;;;;;;61.63;29.80;;;;;;;;;;5086087;28;20031;-69
2022/03/24 01:08:44;;;;;;;59.53;31.10;;;;;;;;;;5088966;28;20020;-68
2022/03/24 01:11:10;;;;;;;61.77;29.77;;;;;;;;;;5086594;28;20031;-68
2022/03/24 01:13:38;;;;;;;68.40;30.83;;;;;;;;;;5086801;28;20569;-68
2022/03/24 01:16:03;;;;;;;59.97;29.47;;;;;;;;;;5086314;28;20081;-68
2022/03/24 01:18:29;;;;;;;59.90;29.13;;;;;;;;;;5085473;28;20020;-68
2022/03/24 01:20:54;;;;;;;60.10;30.00;;;;;;;;;;5085685;28;20023;-68
2022/03/24 01:23:23;;;;;;;68.67;32.23;;;;;;;;;;5086270;28;20098;-68
2022/03/24 01:25:48;;;;;;;67.43;32.30;;;;;;;;;;5086494;28;20704;-68
2022/03/24 01:28:14;;;;;;;66.93;30.97;;;;;;;;;;5086001;28;20027;-68
2022/03/24 01:30:39;;;;;;;66.77;31.40;;;;;;;;;;5087855;28;20721;-68
2022/03/24 01:33:05;;;;;;;66.10;31.33;;;;;;;;;;5087377;28;20024;-68
2022/03/24 01:35:31;;;;;;;73.30;33.60;;;;;;;;;;5085306;28;20069;-68
2022/03/24 01:37:57;;;;;;;72.50;33.43;;;;;;;;;;5085397;28;20027;-68
2022/03/24 01:40:23;;;;;;;71.70;34.30;;;;;;;;;;5085660;28;20020;-68
2022/03/24 01:42:49;;;;;;;74.57;33.53;;;;;;;;;;5084119;28;20020;-68
2022/03/24 01:45:15;;;;;;;71.97;34.03;;;;;;;;;;5082235;28;20016;-68
2022/03/24 01:47:40;;;;;;;71.63;34.67;;;;;;;;;;5083085;28;20031;-68
2022/03/24 01:50:07;;;;;;;64.97;29.67;;;;;;;;;;5081907;28;20096;-68
2022/03/24 01:52:32;;;;;;;65.37;31.23;;;;;;;;;;5079006;28;20041;-68
2022/03/24 01:54:58;;;;;;;72.60;32.67;;;;;;;;;;5082808;28;20028;-68
2022/03/24 01:57:24;;;;;;;69.50;32.30;;;;;;;;;;5082359;28;20031;-68
2022/03/24 01:59:50;;;;;;;71.33;33.33;;;;;;;;;;5078739;28;20016;-68
2022/03/24 02:02:15;;;;;;;70.50;33.67;;;;;;;;;;5082673;28;20056;-68
2022/03/24 02:04:43;;;;;;;72.60;33.13;;;;;;;;;;5082594;28;20051;-68
2022/03/24 02:07:16;;;;;;;73.57;33.50;;;;;;;;;;5081655;28;20521;-68
2022/03/24 02:09:41;;;;;;;68.27;33.87;;;;;;;;;;5078898;28;20031;-68
2022/03/24 02:12:06;;;;;;;75.27;34.20;;;;;;;;;;5082026;28;20266;-68
2022/03/24 02:14:33;;;;;;;73.63;33.13;;;;;;;;;;5082407;28;20020;-68
2022/03/24 02:16:58;;;;;;;76.60;34.33;;;;;;;;;;5082394;28;20126;-68
2022/03/24 02:19:25;;;;;;;79.47;34.07;;;;;;;;;;5081854;28;20107;-68
2022/03/24 02:21:51;;;;;;;76.40;32.20;;;;;;;;;;5081100;28;20016;-68
2022/03/24 02:24:17;;;;;;;82.47;36.03;;;;;;;;;;5081382;28;20024;-68
2022/03/24 02:26:44;;;;;;;73.20;34.33;;;;;;;;;;5084925;28;20115;-68
2022/03/24 02:29:11;;;;;;;77.83;35.70;;;;;;;;;;5082998;28;20016;-68
2022/03/24 02:31:38;;;;;;;86.90;36.00;;;;;;;;;;5081782;28;20020;-68
2022/03/24 02:36:48;;;;;;;73.83;36.10;;;;;;;;;;5085103;28;20059;-68
2022/03/24 02:39:14;;;;;;;74.07;34.83;;;;;;;;;;5085360;28;20270;-68
2022/03/24 02:41:45;;;;;;;69.30;34.13;;;;;;;;;;5080472;28;20089;-68
2022/03/24 02:44:14;;;;;;;76.27;34.53;;;;;;;;;;5081818;28;20030;-68
2022/03/24 02:46:40;;;;;;;77.43;34.23;;;;;;;;;;5081638;28;20020;-68
2022/03/24 02:49:05;;;;;;;77.07;34.07;;;;;;;;;;5081692;28;20722;-68
2022/03/24 02:51:33;;;;;;;75.00;34.47;;;;;;;;;;5081281;28;20019;-68
2022/03/24 02:53:58;;;;;;;78.00;34.67;;;;;;;;;;5081875;28;20034;-68
2022/03/24 02:56:23;;;;;;;86.20;36.73;;;;;;;;;;5079469;28;20020;-66
2022/03/24 02:58:49;;;;;;;80.17;34.27;;;;;;;;;;5081285;28;20060;-66
2022/03/24 03:01:14;;;;;;;84.70;36.10;;;;;;;;;;5081550;28;20039;-66
2022/03/24 03:03:39;;;;;;;75.53;35.40;;;;;;;;;;5081407;28;20085;-66
2022/03/24 03:06:04;;;;;;;87.53;38.47;;;;;;;;;;5080378;28;20024;-66
2022/03/24 03:08:30;;;;;;;83.77;37.87;;;;;;;;;;5081447;28;20028;-66
2022/03/24 03:10:55;;;;;;;86.80;37.83;;;;;;;;;;5080797;28;20041;-66
2022/03/24 03:13:20;;;;;;;82.90;36.03;;;;;;;;;;5081432;28;20059;-66
2022/03/24 03:15:45;;;;;;;77.63;35.80;;;;;;;;;;5080567;28;20675;-69
2022/03/24 03:18:12;;;;;;;80.27;36.40;;;;;;;;;;5079739;28;20728;-66
2022/03/24 03:20:37;;;;;;;72.83;34.47;;;;;;;;;;5080736;28;20020;-69
2022/03/24 03:23:03;;;;;;;78.17;37.13;;;;;;;;;;5081313;28;20787;-69
2022/03/24 03:25:29;;;;;;;72.10;36.03;;;;;;;;;;5080459;28;20446;-67
2022/03/24 03:27:54;;;;;;;72.43;35.47;;;;;;;;;;5080698;28;20081;-66
2022/03/24 03:30:20;;;;;;;77.40;34.60;;;;;;;;;;5080921;28;20020;-69
2022/03/24 03:32:45;;;;;;;76.27;36.23;;;;;;;;;;5080337;28;20053;-66
2022/03/24 03:35:10;;;;;;;76.87;36.30;;;;;;;;;;5080772;28;20016;-66
2022/03/24 03:37:38;;;;;;;70.60;35.17;;;;;;;;;;5081281;28;20020;-66
2022/03/24 03:40:04;;;;;;;75.00;34.77;;;;;;;;;;5082454;28;20067;-66
2022/03/24 03:42:29;;;;;;;78.37;36.17;;;;;;;;;;5080843;28;20450;-66
2022/03/24 03:44:55;;;;;;;86.03;38.50;;;;;;;;;;5080124;28;20016;-66
2022/03/24 03:47:20;;;;;;;85.20;37.80;;;;;;;;;;5080504;28;20027;-66
2022/03/24 03:49:45;;;;;;;76.57;36.23;;;;;;;;;;5079325;28;20080;-66
2022/03/24 03:52:11;;;;;;;75.57;35.70;;;;;;;;;;5080808;28;20044;-68
2022/03/24 03:54:36;;;;;;;77.57;35.60;;;;;;;;;;5080880;28;20016;-70
2022/03/24 03:57:03;;;;;;;78.50;35.60;;;;;;;;;;5080079;28;20648;-68
2022/03/24 03:59:29;;;;;;;69.30;33.80;;;;;;;;;;5080299;28;20020;-71
2022/03/24 04:01:57;;;;;;;75.07;34.83;;;;;;;;;;5079833;28;20832;-71
2022/03/24 04:04:23;;;;;;;82.93;36.43;;;;;;;;;;5078999;28;20028;-70
2022/03/24 04:06:48;;;;;;;74.07;35.23;;;;;;;;;;5078582;28;20117;-68
2022/03/24 04:09:13;;;;;;;91.23;37.10;;;;;;;;;;5079432;28;20033;-68
2022/03/24 04:11:39;;;;;;;77.93;36.73;;;;;;;;;;5077883;28;20440;-68
2022/03/24 04:14:05;;;;;;;81.90;37.47;;;;;;;;;;5079021;28;20028;-69
2022/03/24 04:16:30;;;;;;;88.17;38.73;;;;;;;;;;5079993;28;20034;-69
2022/03/24 04:18:55;;;;;;;94.00;39.77;;;;;;;;;;5080099;28;20012;-68
2022/03/24 04:21:21;;;;;;;92.43;39.97;;;;;;;;;;5079645;28;20499;-68
2022/03/24 04:23:46;;;;;;;90.67;40.67;;;;;;;;;;5078148;28;20528;-69
2022/03/24 04:26:11;;;;;;;102.17;41.87;;;;;;;;;;5079666;28;20476;-68
2022/03/24 04:28:36;;;;;;;100.83;40.90;;;;;;;;;;5079951;28;20028;-68
2022/03/24 04:31:02;;;;;;;93.17;41.03;;;;;;;;;;5084580;28;20020;-68
2022/03/24 04:33:27;;;;;;;96.57;41.10;;;;;;;;;;5079261;28;20532;-68
2022/03/24 04:35:53;;;;;;;96.73;39.70;;;;;;;;;;5079326;28;20016;-68
2022/03/24 04:38:18;;;;;;;94.07;39.93;;;;;;;;;;5081893;28;20077;-68
2022/03/24 04:40:44;;;;;;;89.00;39.57;;;;;;;;;;5081277;28;20111;-68
2022/03/24 04:43:09;;;;;;;91.03;40.10;;;;;;;;;;5080012;28;20480;-68
2022/03/24 04:45:34;;;;;;;95.17;40.37;;;;;;;;;;5085966;28;20024;-68
2022/03/24 04:48:00;;;;;;;100.03;40.67;;;;;;;;;;5078356;28;20016;-68
2022/03/24 04:50:26;;;;;;;88.53;39.60;;;;;;;;;;5079374;28;20069;-69
2022/03/24 04:52:51;;;;;;;97.27;40.83;;;;;;;;;;5077197;28;20048;-68
2022/03/24 04:55:17;;;;;;;98.53;41.60;;;;;;;;;;5079496;28;20013;-68
2022/03/24 04:57:42;;;;;;;100.33;41.20;;;;;;;;;;5079144;28;20048;-68
2022/03/24 05:00:09;;;;;;;93.27;40.53;;;;;;;;;;5079293;28;20028;-68
2022/03/24 05:02:35;;;;;;;96.40;41.27;;;;;;;;;;5079518;28;20616;-68
2022/03/24 05:05:00;;;;;;;94.47;41.67;;;;;;;;;;5078648;28;20104;-68
2022/03/24 05:07:27;;;;;;;94.20;40.60;;;;;;;;;;5079547;28;20039;-68
2022/03/24 05:09:53;;;;;;;96.20;40.87;;;;;;;;;;5078890;28;20039;-68
2022/03/24 05:12:18;;;;;;;104.20;42.60;;;;;;;;;;5078904;28;20013;-68
2022/03/24 05:14:44;;;;;;;107.57;41.90;;;;;;;;;;5076028;28;20453;-68
2022/03/24 05:17:09;;;;;;;107.13;41.80;;;;;;;;;;5079824;28;20391;-69
2022/03/24 05:19:34;;;;;;;93.83;41.00;;;;;;;;;;5082454;28;20024;-68
2022/03/24 05:22:00;;;;;;;99.87;41.87;;;;;;;;;;5082061;28;20131;-68
2022/03/24 05:24:25;;;;;;;100.07;42.90;;;;;;;;;;5082787;28;20048;-68
2022/03/24 05:26:50;;;;;;;101.17;41.77;;;;;;;;;;5083314;28;20020;-68
2022/03/24 05:29:16;;;;;;;106.10;41.67;;;;;;;;;;5083155;28;20027;-68
2022/03/24 05:31:41;;;;;;;97.57;41.00;;;;;;;;;;5086735;28;20511;-68
2022/03/24 05:34:06;;;;;;;103.40;41.83;;;;;;;;;;5083851;28;20024;-68
2022/03/24 05:36:32;;;;;;;92.87;40.10;;;;;;;;;;5082325;28;20019;-68
2022/03/24 05:38:57;;;;;;;92.77;39.50;;;;;;;;;;5082310;28;20032;-68
2022/03/24 05:41:22;;;;;;;94.13;40.57;;;;;;;;;;5081715;28;20535;-68
2022/03/24 05:44:03;;;;;;;88.70;39.20;;;;;;;;;;5081475;28;20735;-68
2022/03/24 05:46:31;;;;;;;96.43;39.27;;;;;;;;;;5080606;28;20080;-68
2022/03/24 05:48:57;;;;;;;106.87;40.43;;;;;;;;;;5083016;28;20546;-69
2022/03/24 05:51:23;;;;;;;96.50;39.63;;;;;;;;;;5082115;28;20103;-68
2022/03/24 05:53:49;;;;;;;93.97;39.23;;;;;;;;;;5082641;28;20099;-68
2022/03/24 05:56:14;;;;;;;90.77;38.83;;;;;;;;;;5082729;28;20185;-68
2022/03/24 05:58:39;;;;;;;92.00;38.93;;;;;;;;;;5082293;28;20028;-68
2022/03/24 06:01:05;;;;;;;87.10;38.43;;;;;;;;;;5079932;28;20024;-68
2022/03/24 06:03:31;;;;;;;88.27;37.53;;;;;;;;;;5081532;28;20153;-68
2022/03/24 06:05:58;;;;;;;85.13;37.60;;;;;;;;;;5079651;28;20062;-68
2022/03/24 06:08:24;;;;;;;81.87;36.30;;;;;;;;;;5081956;28;20077;-68
2022/03/24 06:10:51;;;;;;;83.63;36.27;;;;;;;;;;5083002;28;20016;-68
2022/03/24 06:13:17;;;;;;;82.73;34.67;;;;;;;;;;5081313;28;20016;-68
2022/03/24 06:15:42;;;;;;;80.77;35.07;;;;;;;;;;5082643;28;20024;-68
2022/03/24 06:18:07;;;;;;;77.90;36.07;;;;;;;;;;5080996;28;20023;-68
2022/03/24 06:20:32;;;;;;;97.30;35.13;;;;;;;;;;5081015;28;20473;-68
2022/03/24 06:22:58;;;;;;;75.80;33.07;;;;;;;;;;5082703;28;20024;-68
2022/03/24 06:25:23;;;;;;;61.80;29.00;;;;;;;;;;5081093;28;20123;-68
2022/03/24 06:27:50;;;;;;;58.00;27.27;;;;;;;;;;5081900;28;20419;-67
2022/03/24 06:30:15;;;;;;;64.03;27.23;;;;;;;;;;5080618;28;20130;-70
2022/03/24 06:32:40;;;;;;;57.10;27.30;;;;;;;;;;5082564;28;20032;-68
2022/03/24 06:35:08;;;;;;;53.63;26.20;;;;;;;;;;5082217;28;20020;-67
2022/03/24 06:37:39;;;;;;;53.83;27.23;;;;;;;;;;5083229;28;20028;-68
2022/03/24 06:40:06;;;;;;;57.00;28.25;;;;;;;;;;5082714;28;20024;-67
2022/03/24 06:42:31;;;;;;;55.47;26.77;;;;;;;;;;5082102;28;20058;-70
2022/03/24 06:44:56;;;;;;;56.17;26.80;;;;;;;;;;5081792;28;20032;-68
2022/03/24 06:47:22;;;;;;;55.40;27.63;;;;;;;;;;5082461;28;20024;-67
2022/03/24 06:49:47;;;;;;;57.40;26.93;;;;;;;;;;5081307;28;20465;-68
2022/03/24 06:52:12;;;;;;;53.17;27.23;;;;;;;;;;5083147;28;20551;-68
2022/03/24 06:54:38;;;;;;;49.83;27.17;;;;;;;;;;5091859;28;20051;-68
2022/03/24 06:57:03;;;;;;;54.57;27.47;;;;;;;;;;5083499;28;20024;-68
2022/03/24 06:59:28;;;;;;;48.60;26.73;;;;;;;;;;5083198;28;20530;-68
2022/03/24 07:01:54;;;;;;;47.27;25.40;;;;;;;;;;5082929;28;20028;-68
2022/03/24 07:04:19;;;;;;;45.73;26.27;;;;;;;;;;5082595;28;20039;-68
2022/03/24 07:06:44;;;;;;;44.70;25.53;;;;;;;;;;5083040;28;20024;-68
2022/03/24 07:09:09;;;;;;;44.03;25.63;;;;;;;;;;5082793;28;20149;-68
2022/03/24 07:11:35;;;;;;;63.80;26.30;;;;;;;;;;5082706;28;20046;-68
2022/03/24 07:14:00;;;;;;;44.63;25.47;;;;;;;;;;5082730;28;20020;-70
2022/03/24 07:16:25;;;;;;;43.53;25.53;;;;;;;;;;5082913;28;20039;-70
2022/03/24 07:18:51;;;;;;;44.37;25.60;;;;;;;;;;5082973;28;20034;-70
2022/03/24 07:21:16;;;;;;;47.72;27.00;;;;;;;;;;5082683;28;20028;-70
2022/03/24 07:23:42;;;;;;;43.30;25.83;;;;;;;;;;5083078;28;20020;-70
2022/03/24 07:26:09;;;;;;;43.73;24.90;;;;;;;;;;5094311;28;20039;-70
2022/03/24 07:28:34;;;;;;;44.13;25.45;;;;;;;;;;5103042;28;20030;-70
2022/03/24 07:31:07;;;;;;;45.72;25.27;;;;;;;;;;5085754;28;20548;-70
2022/03/24 07:33:32;;;;;;;46.58;25.80;;;;;;;;;;5082579;28;20020;-70
2022/03/24 07:35:58;;;;;;;43.42;24.92;;;;;;;;;;5081804;28;20515;-70
2022/03/24 07:38:23;;;;;;;46.83;25.65;;;;;;;;;;5082355;28;20392;-70
2022/03/24 07:40:48;;;;;;;49.58;25.23;;;;;;;;;;5081255;28;20046;-70
2022/03/24 07:43:13;;;;;;;46.97;25.70;;;;;;;;;;5081984;28;20103;-70
2022/03/24 07:45:39;;;;;;;42.65;24.60;;;;;;;;;;5081841;28;20055;-70
2022/03/24 07:48:06;;;;;;;40.20;24.95;;;;;;;;;;5082112;28;20016;-70
2022/03/24 07:50:31;;;;;;;50.42;25.40;;;;;;;;;;5082184;28;20366;-70
2022/03/24 07:53:03;;;;;;;42.47;24.88;;;;;;;;;;5081960;28;20115;-70
2022/03/24 07:55:29;;;;;;;40.25;23.67;;;;;;;;;;5081168;28;20023;-70
2022/03/24 07:57:54;;;;;;;38.63;24.23;;;;;;;;;;5081761;28;20629;-70
2022/03/24 08:00:20;;;;;;;36.17;24.10;;;;;;;;;;5081858;28;20020;-70
2022/03/24 08:02:45;;;;;;;35.90;23.70;;;;;;;;;;5081965;28;20031;-70
2022/03/24 08:05:10;;;;;;;40.13;25.52;;;;;;;;;;5081359;28;20039;-70
2022/03/24 08:07:36;;;;;;;38.10;25.27;;;;;;;;;;5081814;28;20439;-70
2022/03/24 08:10:01;;;;;;;38.28;25.23;;;;;;;;;;5081492;28;20047;-71
2022/03/24 08:12:26;;;;;;;44.10;26.08;;;;;;;;;;5082184;28;20113;-70
2022/03/24 08:14:51;;;;;;;43.70;26.95;;;;;;;;;;5081222;28;20024;-70
2022/03/24 08:17:17;;;;;;;41.25;25.92;;;;;;;;;;5084633;28;20720;-70
2022/03/24 08:19:42;;;;;;;42.83;26.48;;;;;;;;;;5095980;28;20036;-71
2022/03/24 08:22:08;;;;;;;45.40;25.73;;;;;;;;;;5082001;28;20480;-71
2022/03/24 08:24:33;;;;;;;39.35;24.88;;;;;;;;;;5081638;28;20755;-71
2022/03/24 08:26:58;;;;;;;37.70;25.17;;;;;;;;;;5081734;28;20100;-71
2022/03/24 08:29:24;;;;;;;41.30;25.35;;;;;;;;;;5081521;28;20043;-71
2022/03/24 08:31:49;;;;;;;42.35;24.55;;;;;;;;;;5081724;28;20020;-71
2022/03/24 08:34:15;;;;;;;39.10;24.30;;;;;;;;;;5080948;28;20451;-71
2022/03/24 08:36:40;;;;;;;39.67;23.15;;;;;;;;;;5082013;28;20046;-71
2022/03/24 08:39:06;;;;;;;39.15;23.85;;;;;;;;;;5081488;28;20023;-71
2022/03/24 08:41:31;;;;;;;37.58;23.88;;;;;;;;;;5081657;28;20039;-71
2022/03/24 08:43:56;;;;;;;42.45;23.67;;;;;;;;;;5090022;28;20016;-71
2022/03/24 08:46:24;;;;;;;38.13;22.60;;;;;;;;;;5082126;28;20032;-70
2022/03/24 08:48:50;;;;;;;35.03;23.20;;;;;;;;;;5080795;28;20473;-70
2022/03/24 08:51:15;;;;;;;33.58;22.25;;;;;;;;;;5080983;28;20038;-70
2022/03/24 08:53:41;;;;;;;39.03;24.20;;;;;;;;;;5084374;28;20028;-70
2022/03/24 08:56:06;;;;;;;34.30;23.02;;;;;;;;;;5085148;28;20348;-68
2022/03/24 08:58:31;;;;;;;34.70;22.67;;;;;;;;;;5085483;28;20060;-68
2022/03/24 09:00:56;;;;;;;36.10;23.15;;;;;;;;;;5085011;28;20020;-68
2022/03/24 09:03:22;;;;;;;33.35;22.70;;;;;;;;;;5085872;28;20046;-68
2022/03/24 09:05:47;;;;;;;33.95;22.63;;;;;;;;;;5084877;28;20514;-68
2022/03/24 09:08:12;;;;;;;33.88;22.67;;;;;;;;;;5085585;28;20089;-68
2022/03/24 09:10:38;;;;;;;36.55;23.02;;;;;;;;;;5085094;28;20028;-68
2022/03/24 09:13:03;;;;;;;32.63;22.90;;;;;;;;;;5085203;28;20020;-67
2022/03/24 09:15:29;;;;;;;34.53;22.30;;;;;;;;;;5084858;28;20024;-67
2022/03/24 09:17:54;;;;;;;35.67;23.52;;;;;;;;;;5085635;28;20020;-67
2022/03/24 09:20:21;;;;;;;33.65;21.98;;;;;;;;;;5085119;28;20715;-69
2022/03/24 09:22:47;;;;;;;34.30;22.25;;;;;;;;;;5085098;28;20054;-69
2022/03/24 09:25:14;;;;;;;36.50;22.23;;;;;;;;;;5084792;28;20055;-69
2022/03/24 09:27:40;;;;;;;34.45;22.55;;;;;;;;;;5084777;28;20081;-69
2022/03/24 09:30:07;;;;;;;31.45;21.30;;;;;;;;;;5084985;28;20012;-69
2022/03/24 09:32:32;;;;;;;35.63;22.50;;;;;;;;;;5084852;28;20024;-69
2022/03/24 09:34:58;;;;;;;32.83;22.80;;;;;;;;;;5092904;28;20638;-69
2022/03/24 09:37:24;;;;;;;34.88;22.70;;;;;;;;;;5099082;28;20050;-69
2022/03/24 09:39:50;;;;;;;35.92;22.30;;;;;;;;;;5084692;28;20540;-69
2022/03/24 09:42:15;;;;;;;32.72;21.88;;;;;;;;;;5084831;28;20028;-69
2022/03/24 09:44:40;;;;;;;33.53;22.55;;;;;;;;;;5084086;28;20046;-69
2022/03/24 09:47:06;;;;;;;33.58;22.17;;;;;;;;;;5084469;28;20131;-69
2022/03/24 09:49:32;;;;;;;34.90;23.35;;;;;;;;;;5084114;28;20027;-67
2022/03/24 09:51:58;;;;;;;35.83;22.98;;;;;;;;;;5084043;28;20036;-67
2022/03/24 09:54:23;;;;;;;35.03;22.67;;;;;;;;;;5084034;28;20096;-67
2022/03/24 09:56:48;;;;;;;34.13;22.48;;;;;;;;;;5083930;28;20054;-67
2022/03/24 09:59:13;;;;;;;34.70;23.02;;;;;;;;;;5083702;28;20027;-67
2022/03/24 10:01:40;;;;;;;38.35;24.40;;;;;;;;;;5084260;28;20026;-67
2022/03/24 10:04:10;;;;;;;39.50;23.95;;;;;;;;;;5082570;28;20039;-67
2022/03/24 10:06:36;;;;;;;40.40;23.65;;;;;;;;;;5083371;28;20042;-67
2022/03/24 10:09:02;;;;;;;33.47;21.55;;;;;;;;;;5083856;28;20091;-67
2022/03/24 10:11:28;;;;;;;31.48;21.58;;;;;;;;;;5084152;28;20103;-67
2022/03/24 10:13:55;;;;;;;33.10;19.65;;;;;;;;;;5099980;28;20655;-67
2022/03/24 10:16:32;;;;;;;37.17;21.20;;;;;;;;;;5083029;28;20031;-68
2022/03/24 10:19:00;;;;;;;32.60;20.55;;;;;;;;;;5063677;28;20020;-67
2022/03/24 10:21:27;;;;;;;35.67;21.88;;;;;;;;;;5083854;28;20024;-67
2022/03/24 10:23:52;;;;;;;35.10;23.08;;;;;;;;;;5083975;28;20024;-67
2022/03/24 10:26:17;;;;;;;37.10;22.50;;;;;;;;;;5083345;28;20684;-67
2022/03/24 10:28:56;;;;;;;34.53;21.60;;;;;;;;;;5083434;28;20607;-67
2022/03/24 10:31:31;;;;;;;37.33;22.42;;;;;;;;;;5083179;28;20017;-67
2022/03/24 10:33:57;;;;;;;35.47;22.10;;;;;;;;;;5083719;28;20020;-67
2022/03/24 10:36:23;;;;;;;38.17;23.13;;;;;;;;;;5083326;28;20802;-67
2022/03/24 10:38:50;;;;;;;38.15;22.80;;;;;;;;;;5083592;28;20343;-67
2022/03/24 10:41:15;;;;;;;40.50;22.02;;;;;;;;;;5082898;28;20024;-67
2022/03/24 10:43:41;;;;;;;36.63;20.85;;;;;;;;;;5083481;28;20031;-67
2022/03/24 10:46:13;;;;;;;38.08;21.70;;;;;;;;;;5083145;28;20687;-67
2022/03/24 10:48:38;;;;;;;34.88;21.35;;;;;;;;;;5083215;28;20016;-67
2022/03/24 10:51:04;;;;;;;35.20;20.70;;;;;;;;;;5083129;28;20055;-67
2022/03/24 10:53:37;;;;;;;35.35;18.52;;;;;;;;;;5088908;28;20589;-67
2022/03/24 10:56:13;;;;;;;36.97;20.75;;;;;;;;;;5086481;28;20040;-67
2022/03/24 10:58:58;;;;;;;36.00;20.52;;;;;;;;;;5082874;28;20020;-67
2022/03/24 11:01:24;;;;;;;33.38;19.63;;;;;;;;;;5082846;28;20576;-67
2022/03/24 11:03:49;;;;;;;32.25;19.42;;;;;;;;;;5083373;28;20031;-67
2022/03/24 11:06:17;;;;;;;35.95;18.80;;;;;;;;;;5082562;28;20424;-67
2022/03/24 11:08:42;;;;;;;32.42;19.30;;;;;;;;;;5082926;28;20024;-67
2022/03/24 11:11:13;;;;;;;30.73;19.33;;;;;;;;;;5082193;28;20026;-68
2022/03/24 11:13:53;;;;;;;36.42;20.35;;;;;;;;;;5082840;28;20031;-67
2022/03/24 11:16:27;;;;;;;31.25;17.80;;;;;;;;;;5082695;28;20138;-67
2022/03/24 11:18:52;;;;;;;37.90;20.30;;;;;;;;;;5082702;28;20480;-67
2022/03/24 11:21:34;;;;;;;36.58;19.88;;;;;;;;;;5082690;28;20028;-67
2022/03/24 11:23:59;;;;;;;46.22;20.55;;;;;;;;;;5082883;28;20024;-67
2022/03/24 11:26:25;;;;;;;32.63;20.23;;;;;;;;;;5082397;28;20035;-67
2022/03/24 11:28:53;;;;;;;33.63;20.25;;;;;;;;;;5082474;28;20074;-67
2022/03/24 11:31:18;;;;;;;34.50;20.30;;;;;;;;;;5094882;28;20015;-67
2022/03/24 11:33:47;;;;;;;37.70;19.95;;;;;;;;;;5102613;28;20028;-67
2022/03/24 11:36:13;;;;;;;34.60;19.75;;;;;;;;;;5084127;28;20063;-67
2022/03/24 11:38:39;;;;;;;35.50;20.27;;;;;;;;;;5082171;28;20020;-67
2022/03/24 11:41:11;;;;;;;32.97;19.40;;;;;;;;;;5082038;28;20042;-67
2022/03/24 11:43:36;;;;;;;;;;;;;;;;;;5082737;28;20178;-67
2022/03/24 11:46:03;;;;;;;36.40;20.33;;;;;;;;;;5082059;28;20011;-67
2022/03/24 11:48:33;;;;;;;38.30;19.92;;;;;;;;;;5082872;28;20012;-67
2022/03/24 11:51:03;;;;;;;32.80;18.98;;;;;;;;;;5081400;28;20020;-67
2022/03/24 11:53:28;;;;;;;34.22;19.20;;;;;;;;;;5082125;28;20044;-67
2022/03/24 11:55:59;;;;;;;30.95;19.13;;;;;;;;;;5082166;28;20016;-67
2022/03/24 11:58:28;;;;;;;34.58;19.38;;;;;;;;;;5082334;28;20024;-67
2022/03/24 12:00:54;;;;;;;32.05;18.25;;;;;;;;;;5081684;28;20067;-67
2022/03/24 12:03:40;;;;;;;29.75;18.52;;;;;;;;;;5082071;28;20048;-67
2022/03/24 12:06:05;;;;;;;30.95;18.80;;;;;;;;;;5081355;28;20389;-67
2022/03/24 12:08:42;;;;;;;29.52;19.00;;;;;;;;;;5081879;28;20526;-67
2022/03/24 12:11:41;;;;;;;30.08;18.20;;;;;;;;;;5078952;28;20504;-67
2022/03/24 12:14:07;;;;;;;34.33;19.85;;;;;;;;;;4964664;28;20130;-67
2022/03/24 12:16:34;;;;;;;39.78;19.85;;;;;;;;;;4976400;28;20029;-67
2022/03/24 12:19:00;;;;;;;27.00;17.70;;;;;;;;;;4968619;28;20030;-67
2022/03/24 12:21:27;;;;;;;37.35;18.35;;;;;;;;;;4959842;28;20568;-67
2022/03/24 12:24:04;;;;;;;32.28;17.77;;;;;;;;;;4960054;28;20041;-67
2022/03/24 12:26:30;;;;;;;29.95;18.15;;;;;;;;;;4959881;28;20030;-68
2022/03/24 12:29:13;;;;;;;28.23;16.60;;;;;;;;;;4959645;28;20085;-69
2022/03/24 12:31:57;;;;;;;25.92;14.63;;;;;;;;;;4959762;28;20059;-70
2022/03/24 12:34:26;;;;;;;28.00;16.30;;;;;;;;;;4959849;28;20058;-70
2022/03/24 12:36:52;;;;;;;26.42;15.13;;;;;;;;;;4960015;28;20035;-71
2022/03/24 12:39:37;;;;;;;30.13;17.45;;;;;;;;;;4962533;28;20041;-71
2022/03/24 12:42:13;;;;;;;31.33;18.50;;;;;;;;;;4959090;28;20511;-71
2022/03/24 12:44:57;;;;;;;26.95;17.73;;;;;;;;;;4960253;28;20101;-71
2022/03/24 12:47:36;;;;;;;22.70;13.70;;;;;;;;;;4977806;28;20019;-71
2022/03/24 12:50:22;;;;;;;27.45;14.75;;;;;;;;;;5036143;28;20972;-71
2022/03/24 12:52:48;;;;;;;26.95;14.38;;;;;;;;;;5081328;28;20177;-71
2022/03/24 12:55:27;;;;;;;25.10;14.10;;;;;;;;;;5081419;28;20024;-71
2022/03/24 12:58:02;;;;;;;25.95;13.98;;;;;;;;;;5081594;28;20468;-71
2022/03/24 13:00:32;;;;;;;20.73;13.30;;;;;;;;;;5080952;28;20103;-71
2022/03/24 13:02:59;;;;;;;25.45;15.13;;;;;;;;;;5081134;28;20531;-71
2022/03/24 13:05:25;;;;;;;26.35;13.93;;;;;;;;;;5081516;28;20092;-71
2022/03/24 13:07:52;;;;;;;25.25;15.95;;;;;;;;;;5081231;28;20535;-71
2022/03/24 13:10:18;;;;;;;29.40;16.13;;;;;;;;;;5080622;28;20016;-71
2022/03/24 13:12:45;;;;;;;26.13;15.95;;;;;;;;;;5081292;28;20027;-71
2022/03/24 13:15:25;;;;;;;32.72;17.33;;;;;;;;;;5080876;28;20028;-71
2022/03/24 13:17:51;;;;;;;24.55;15.82;;;;;;;;;;5081429;28;20027;-71
2022/03/24 13:20:20;;;;;;;23.95;15.35;;;;;;;;;;5080014;28;20213;-71
2022/03/24 13:22:47;;;;;;;30.08;15.95;;;;;;;;;;5077075;28;20492;-71
2022/03/24 13:25:14;;;;;;;27.98;15.98;;;;;;;;;;5081267;28;20503;-71
2022/03/24 13:27:40;;;;;;;29.13;16.05;;;;;;;;;;5081184;28;20097;-71
2022/03/24 13:30:07;;;;;;;26.95;14.35;;;;;;;;;;5091470;28;20473;-71
2022/03/24 13:32:32;;;;;;;24.70;13.35;;;;;;;;;;5081207;28;20071;-71
2022/03/24 13:34:59;;;;;;;26.98;13.02;;;;;;;;;;5080659;28;20043;-71
2022/03/24 13:37:25;;;;;;;22.15;12.15;;;;;;;;;;5081199;28;20028;-71
2022/03/24 13:39:52;;;;;;;24.38;13.35;;;;;;;;;;5083404;28;20536;-72
2022/03/24 13:42:18;;;;;;;23.48;12.32;;;;;;;;;;5085064;28;20490;-71
2022/03/24 13:44:44;;;;;;;23.23;12.63;;;;;;;;;;5084476;28;20069;-71
2022/03/24 13:47:10;;;;;;;29.48;12.50;;;;;;;;;;5083942;28;20491;-71
2022/03/24 13:49:35;;;;;;;19.80;11.68;;;;;;;;;;5084107;28;20020;-72
2022/03/24 13:52:01;;;;;;;20.45;9.50;;;;;;;;;;5084235;28;20464;-71
2022/03/24 13:54:26;;;;;;;18.50;8.52;;;;;;;;;;5084399;28;20035;-71
2022/03/24 13:56:52;;;;;;;21.67;9.98;;;;;;;;;;5083649;28;20386;-71
2022/03/24 13:59:24;;;;;;;22.80;9.43;;;;;;;;;;5084028;28;20051;-70
2022/03/24 14:01:57;;;;;;;19.40;7.82;;;;;;;;;;5084439;28;20416;-70
2022/03/24 14:04:22;;;;;;;19.42;8.50;;;;;;;;;;5084101;28;20073;-70
2022/03/24 14:07:06;;;;;;;20.95;9.93;;;;;;;;;;5084092;28;20468;-70
2022/03/24 14:09:32;;;;;;;23.67;9.25;;;;;;;;;;5083507;28;20032;-71
2022/03/24 14:12:07;;;;;;;20.00;8.77;;;;;;;;;;5084175;28;20488;-71
2022/03/24 14:14:32;;;;;;;19.90;9.00;;;;;;;;;;5083828;28;20019;-71
2022/03/24 14:16:58;;;;;;;22.50;8.93;;;;;;;;;;5083101;28;20389;-71
2022/03/24 14:19:26;;;;;;;20.08;9.00;;;;;;;;;;5083926;28;20100;-71